createdAt,value
2023-03-04T00:00:25.512Z,2.40
2023-03-04T00:05:32.612Z,2.20
2023-03-04T00:10:39.885Z,2.30
2023-03-04T00:15:46.932Z,2.30
2023-03-04T00:20:53.931Z,2.30
2023-03-04T00:26:00.682Z,2.40
2023-03-04T00:31:10.767Z,2.50
2023-03-04T00:36:17.524Z,2.50
2023-03-04T00:41:24.455Z,2.40
2023-03-04T00:46:31.179Z,2.30
2023-03-04T00:51:37.986Z,2.30
2023-03-04T00:56:45.074Z,2.20
2023-03-04T01:01:52.345Z,2.60
2023-03-04T01:06:59.030Z,2.40
2023-03-04T01:12:05.997Z,2.40
2023-03-04T01:17:12.996Z,2.30
2023-03-04T01:22:20.016Z,2.30
2023-03-04T01:27:28.791Z,2.30
2023-03-04T01:32:36.045Z,2.40
2023-03-04T01:37:43.596Z,2.30
2023-03-04T01:42:50.903Z,2.20
2023-03-04T01:47:57.938Z,2.10
2023-03-04T01:53:05.894Z,2.20
2023-03-04T02:03:39.982Z,2.30
2023-03-04T02:08:47.371Z,2.40
2023-03-04T02:13:55.377Z,2.20
2023-03-04T02:19:02.733Z,2.10
2023-03-04T02:24:23.181Z,2.10
2023-03-04T02:29:34.098Z,2.00
2023-03-04T02:34:46.188Z,2.00
2023-03-04T02:39:53.230Z,2.00
2023-03-04T02:45:03.775Z,2.00
2023-03-04T02:50:12.168Z,2.10
2023-03-04T02:55:19.056Z,1.80
2023-03-04T03:00:26.028Z,1.70
2023-03-04T03:05:34.801Z,1.90
2023-03-04T03:10:41.863Z,1.90
2023-03-04T03:15:50.146Z,2.00
2023-03-04T03:20:56.931Z,1.90
2023-03-04T03:26:04.419Z,1.80
2023-03-04T03:31:11.514Z,1.90
2023-03-04T03:36:18.135Z,1.80
2023-03-04T03:41:25.674Z,1.90
2023-03-04T03:46:32.585Z,1.90
2023-03-04T03:51:39.392Z,1.90
2023-03-04T03:56:46.108Z,1.70
2023-03-04T04:01:52.859Z,1.70
2023-03-04T04:06:59.550Z,1.70
2023-03-04T04:12:08.219Z,1.80
2023-03-04T04:17:16.289Z,1.80
2023-03-04T04:22:23.906Z,1.80
2023-03-04T04:27:30.728Z,1.80
2023-03-04T04:32:37.442Z,1.70
2023-03-04T04:37:44.126Z,1.70
2023-03-04T04:42:50.798Z,1.80
2023-03-04T04:47:58.173Z,1.80
2023-03-04T04:53:04.854Z,1.70
2023-03-04T04:58:11.618Z,1.70
2023-03-04T05:03:18.974Z,1.60
2023-03-04T05:08:25.777Z,1.70
2023-03-04T05:13:32.655Z,1.60
2023-03-04T05:18:39.464Z,1.70
2023-03-04T05:23:47.821Z,1.70
2023-03-04T05:28:54.520Z,1.60
2023-03-04T05:34:01.214Z,1.70
2023-03-04T05:39:07.940Z,1.90
2023-03-04T05:44:14.616Z,1.90
2023-03-04T05:49:21.676Z,1.90
2023-03-04T05:54:28.380Z,1.70
2023-03-04T05:59:35.127Z,1.80
2023-03-04T06:04:41.765Z,1.80
2023-03-04T06:09:49.909Z,1.70
2023-03-04T06:14:56.822Z,1.90
2023-03-04T06:20:05.110Z,2.00
2023-03-04T06:25:11.961Z,2.10
2023-03-04T06:30:18.805Z,2.00
2023-03-04T06:35:25.638Z,2.10
2023-03-04T06:40:32.296Z,2.20
2023-03-04T06:45:40.823Z,2.30
2023-03-04T06:50:47.505Z,2.30
2023-03-04T06:55:54.184Z,2.30
2023-03-04T07:01:15.920Z,2.40
2023-03-04T07:06:26.299Z,2.50
2023-03-04T07:11:33.437Z,2.40
2023-03-04T07:16:40.201Z,2.50
2023-03-04T07:21:48.494Z,2.50
2023-03-04T07:26:55.129Z,2.60
2023-03-04T07:32:03.120Z,2.80
2023-03-04T07:37:09.826Z,2.90
2023-03-04T07:42:16.524Z,3.00
2023-03-04T07:47:23.158Z,3.00
2023-03-04T07:52:29.875Z,3.00
2023-03-04T07:57:36.604Z,3.10
2023-03-04T08:02:43.304Z,3.20
2023-03-04T08:07:49.985Z,3.30
2023-03-04T08:12:56.689Z,3.30
2023-03-04T08:18:05.018Z,3.50
2023-03-04T08:23:12.731Z,3.60
2023-03-04T08:28:20.207Z,3.60
2023-03-04T08:33:26.847Z,3.60
2023-03-04T08:38:33.561Z,3.80
2023-03-04T08:43:40.671Z,4.00
2023-03-04T08:48:47.547Z,4.40
2023-03-04T08:53:54.303Z,4.60
2023-03-04T08:59:01.251Z,5.30
2023-03-04T09:04:08.488Z,5.90
2023-03-04T09:09:15.169Z,6.40
2023-03-04T09:14:21.850Z,7.10
2023-03-04T09:19:28.665Z,7.50
2023-03-04T09:24:35.312Z,7.80
2023-03-04T09:29:43.501Z,7.90
2023-03-04T09:34:50.195Z,8.10
2023-03-04T09:39:56.902Z,7.90
2023-03-04T09:45:06.868Z,7.80
2023-03-04T09:50:14.661Z,7.90
2023-03-04T09:55:40.520Z,8.00
2023-03-04T10:01:06.088Z,8.00
2023-03-04T10:06:21.433Z,8.40
2023-03-04T10:12:08.328Z,8.90
2023-03-04T10:17:39.774Z,9.10
2023-03-04T10:22:56.140Z,9.50
2023-03-04T10:28:15.912Z,10.30
2023-03-04T10:33:27.243Z,10.30
2023-03-04T10:38:43.205Z,10.40
2023-03-04T10:44:07.082Z,10.40
2023-03-04T10:49:18.133Z,10.50
2023-03-04T10:54:43.754Z,10.60
2023-03-04T10:59:59.586Z,10.50
2023-03-04T11:05:22.851Z,10.90
2023-03-04T11:10:45.922Z,11.10
2023-03-04T11:16:06.536Z,11.20
2023-03-04T11:21:17.843Z,11.60
2023-03-04T11:26:29.431Z,11.80
2023-03-04T11:31:59.410Z,11.70
2023-03-04T11:37:13.958Z,12.00
2023-03-04T11:42:40.306Z,11.40
2023-03-04T11:47:54.448Z,11.40
2023-03-04T11:53:44.485Z,11.10
2023-03-04T11:59:16.584Z,11.40
2023-03-04T12:04:49.071Z,11.50
2023-03-04T12:10:37.112Z,11.00
2023-03-04T12:16:06.037Z,10.80
2023-03-04T12:21:50.284Z,11.40
2023-03-04T12:27:34.560Z,11.30
2023-03-04T12:33:07.938Z,11.40
2023-03-04T12:38:24.594Z,11.30
2023-03-04T12:43:56.146Z,11.70
2023-03-04T12:49:35.637Z,11.90
2023-03-04T12:54:47.019Z,11.60
2023-03-04T13:00:31.572Z,11.70
2023-03-04T13:06:12.182Z,12.00
2023-03-04T13:11:34.876Z,12.20
2023-03-04T13:16:48.806Z,12.10
2023-03-04T13:21:55.259Z,12.30
2023-03-04T13:27:01.899Z,12.10
2023-03-04T13:32:14.029Z,11.50
2023-03-04T13:37:38.740Z,11.30
2023-03-04T13:42:46.549Z,11.30
2023-03-04T13:47:53.461Z,11.20
2023-03-04T13:53:30.016Z,11.30
2023-03-04T13:58:38.394Z,11.10
2023-03-04T14:03:45.464Z,11.20
2023-03-04T14:08:56.230Z,11.50
2023-03-04T14:14:07.159Z,10.90
2023-03-04T14:19:29.609Z,10.70
2023-03-04T14:24:38.139Z,10.90
2023-03-04T14:29:44.875Z,10.60
2023-03-04T14:34:57.514Z,10.70
2023-03-04T14:40:06.105Z,10.40
2023-03-04T14:45:18.451Z,10.30
2023-03-04T14:50:25.929Z,10.40
2023-03-04T14:55:32.906Z,10.60
2023-03-04T15:00:43.907Z,10.40
2023-03-04T15:05:52.653Z,10.20
2023-03-04T15:11:03.085Z,10.10
2023-03-04T15:16:11.803Z,10.00
2023-03-04T15:21:35.385Z,9.90
2023-03-04T15:26:46.509Z,9.80
2023-03-04T15:31:54.321Z,9.70
2023-03-04T15:37:02.570Z,9.60
2023-03-04T15:42:13.852Z,9.40
2023-03-04T15:47:20.626Z,9.60
2023-03-04T15:52:28.475Z,9.40
2023-03-04T15:57:36.167Z,9.30
2023-03-04T16:02:43.754Z,9.10
2023-03-04T16:07:53.530Z,8.90
2023-03-04T16:13:00.992Z,8.80
2023-03-04T16:18:10.193Z,8.50
2023-03-04T16:23:23.759Z,8.40
2023-03-04T16:28:30.899Z,8.10
2023-03-04T16:33:37.746Z,7.80
2023-03-04T16:38:46.687Z,7.50
2023-03-04T16:43:55.201Z,7.50
2023-03-04T16:49:01.983Z,7.30
2023-03-04T16:54:13.152Z,7.20
2023-03-04T16:59:21.011Z,7.00
2023-03-04T17:04:27.851Z,7.10
2023-03-04T17:09:34.692Z,7.30
2023-03-04T17:14:41.762Z,6.90
2023-03-04T17:19:49.256Z,6.80
2023-03-04T17:24:56.341Z,6.60
2023-03-04T17:30:04.785Z,6.30
2023-03-04T17:35:12.763Z,6.20
2023-03-04T17:40:20.514Z,6.00
2023-03-04T17:45:27.614Z,6.00
2023-03-04T17:50:35.215Z,5.90
2023-03-04T17:55:44.289Z,5.90
2023-03-04T18:00:53.157Z,5.80
2023-03-04T18:05:59.806Z,6.00
2023-03-04T18:11:06.815Z,6.00
2023-03-04T18:16:16.561Z,5.90
2023-03-04T18:21:23.876Z,6.00
2023-03-04T18:26:30.883Z,6.00
2023-03-04T18:31:38.019Z,5.90
2023-03-04T18:36:45.048Z,5.70
2023-03-04T18:41:51.977Z,5.60
2023-03-04T18:47:00.242Z,5.60
2023-03-04T18:52:07.187Z,5.60
2023-03-04T18:57:17.370Z,5.50
2023-03-04T19:02:37.390Z,5.50
2023-03-04T19:07:45.066Z,5.40
2023-03-04T19:12:53.396Z,5.40
2023-03-04T19:18:00.556Z,5.30
2023-03-04T19:23:08.880Z,5.30
2023-03-04T19:28:16.922Z,5.20
2023-03-04T19:33:24.014Z,5.30
2023-03-04T19:38:31.535Z,5.20
2023-03-04T19:43:39.715Z,5.20
2023-03-04T19:48:46.436Z,5.30
2023-03-04T19:53:53.404Z,5.10
2023-03-04T19:59:00.517Z,5.10
2023-03-04T20:04:11.810Z,5.20
2023-03-04T20:09:19.658Z,5.20
2023-03-04T20:14:27.049Z,4.90
2023-03-04T20:19:36.235Z,4.90
2023-03-04T20:24:45.738Z,4.80
2023-03-04T20:29:53.331Z,4.80
2023-03-04T20:35:00.138Z,5.00
2023-03-04T20:40:07.643Z,4.80
2023-03-04T20:45:14.893Z,4.80
2023-03-04T20:50:21.864Z,4.70
2023-03-04T20:55:28.802Z,4.60
2023-03-04T21:00:37.404Z,4.60
2023-03-04T21:05:44.324Z,4.60
2023-03-04T21:10:54.156Z,4.60
2023-03-04T21:16:01.827Z,4.60
2023-03-04T21:21:15.992Z,4.50
2023-03-04T21:26:24.484Z,4.30
2023-03-04T21:31:38.624Z,4.20
2023-03-04T21:36:45.830Z,4.50
2023-03-04T21:41:54.529Z,4.40
2023-03-04T21:47:03.762Z,4.30
2023-03-04T21:52:11.090Z,4.30
2023-03-04T21:57:19.698Z,4.30
2023-03-04T22:02:26.510Z,4.40
2023-03-04T22:07:35.114Z,4.30
2023-03-04T22:12:42.343Z,4.20
2023-03-04T22:17:49.334Z,4.00
2023-03-04T22:22:56.882Z,3.70
2023-03-04T22:28:04.070Z,3.70
2023-03-04T22:33:12.343Z,3.70
2023-03-04T22:38:19.934Z,3.50
2023-03-04T22:43:27.100Z,3.60
2023-03-04T22:48:35.106Z,3.50
2023-03-04T22:53:43.389Z,3.50
2023-03-04T22:58:53.704Z,3.50
2023-03-04T23:04:00.749Z,3.70
2023-03-04T23:09:11.064Z,3.50
2023-03-04T23:14:18.312Z,3.30
2023-03-04T23:19:25.297Z,3.20
2023-03-04T23:24:33.613Z,3.10
2023-03-04T23:29:40.634Z,3.30
2023-03-04T23:34:49.140Z,3.20
2023-03-04T23:39:56.473Z,2.90
2023-03-04T23:45:03.160Z,2.90
2023-03-04T23:50:14.412Z,2.80
2023-03-04T23:55:23.954Z,2.70
